createdAt,value
2022-09-30T00:00:37.239Z,8.66
2022-09-30T00:01:37.269Z,8.67
2022-09-30T00:02:37.218Z,8.64
2022-09-30T00:03:37.192Z,8.49
2022-09-30T00:04:37.188Z,8.53
2022-09-30T00:05:37.177Z,8.71
2022-09-30T00:06:37.181Z,8.63
2022-09-30T00:07:37.149Z,8.63
2022-09-30T00:08:37.158Z,8.63
2022-09-30T00:09:37.164Z,8.60
2022-09-30T00:10:37.132Z,8.60
2022-09-30T00:11:37.099Z,8.66
2022-09-30T00:12:37.091Z,8.56
2022-09-30T00:13:37.086Z,8.51
2022-09-30T00:14:37.067Z,8.60
2022-09-30T00:15:37.061Z,8.55
2022-09-30T00:16:37.132Z,8.61
2022-09-30T00:17:37.036Z,8.56
2022-09-30T00:18:37.024Z,8.49
2022-09-30T00:19:37.013Z,8.48
2022-09-30T00:20:37.024Z,8.53
2022-09-30T00:21:37.007Z,8.46
2022-09-30T00:22:36.999Z,8.45
2022-09-30T00:23:36.968Z,8.46
2022-09-30T00:24:36.970Z,8.44
2022-09-30T00:25:36.954Z,8.33
2022-09-30T00:26:36.940Z,8.42
2022-09-30T00:27:36.941Z,8.28
2022-09-30T00:28:36.932Z,8.30
2022-09-30T00:29:36.904Z,8.31
2022-09-30T00:30:36.883Z,8.36
2022-09-30T00:31:36.943Z,8.37
2022-09-30T00:32:36.887Z,8.31
2022-09-30T00:33:36.881Z,8.30
2022-09-30T00:34:36.841Z,8.36
2022-09-30T00:35:36.829Z,8.33
2022-09-30T00:36:36.816Z,8.31
2022-09-30T00:37:36.817Z,8.30
2022-09-30T00:38:36.825Z,8.30
2022-09-30T00:39:36.787Z,8.18
2022-09-30T00:40:36.793Z,8.23
2022-09-30T00:41:36.764Z,8.23
2022-09-30T00:42:36.755Z,8.20
2022-09-30T00:43:36.761Z,8.12
2022-09-30T00:44:36.762Z,8.24
2022-09-30T00:45:36.723Z,8.13
2022-09-30T00:46:38.943Z,8.16
2022-09-30T00:47:37.696Z,8.13
2022-09-30T00:48:36.736Z,8.15
2022-09-30T00:49:36.687Z,8.16
2022-09-30T00:50:36.687Z,8.12
2022-09-30T00:51:36.654Z,8.10
2022-09-30T00:52:36.657Z,8.08
2022-09-30T00:53:36.640Z,8.06
2022-09-30T00:54:36.723Z,8.09
2022-09-30T00:55:36.611Z,8.13
2022-09-30T00:56:36.618Z,8.18
2022-09-30T00:57:36.603Z,8.13
2022-09-30T00:58:36.581Z,8.01
2022-09-30T00:59:36.560Z,8.09
2022-09-30T01:00:36.635Z,8.06
2022-09-30T01:01:36.572Z,8.09
2022-09-30T01:02:36.528Z,8.00
2022-09-30T01:03:36.537Z,8.03
2022-09-30T01:04:36.502Z,8.03
2022-09-30T01:05:36.501Z,8.00
2022-09-30T01:06:36.497Z,8.00
2022-09-30T01:07:36.473Z,8.05
2022-09-30T01:08:36.475Z,8.05
2022-09-30T01:09:36.485Z,8.08
2022-09-30T01:10:36.435Z,8.00
2022-09-30T01:11:36.446Z,7.98
2022-09-30T01:12:36.433Z,8.06
2022-09-30T01:13:36.409Z,7.97
2022-09-30T01:14:36.411Z,8.03
2022-09-30T01:15:36.384Z,8.01
2022-09-30T01:16:36.459Z,8.00
2022-09-30T01:17:36.361Z,7.95
2022-09-30T01:18:36.351Z,7.90
2022-09-30T01:19:36.357Z,7.95
2022-09-30T01:20:36.332Z,7.93
2022-09-30T01:21:36.316Z,7.95
2022-09-30T01:22:41.339Z,7.82
2022-09-30T01:23:37.298Z,7.88
2022-09-30T01:24:36.278Z,7.83
2022-09-30T01:25:36.279Z,7.83
2022-09-30T01:26:36.257Z,7.83
2022-09-30T01:27:36.261Z,7.87
2022-09-30T01:28:36.249Z,7.85
2022-09-30T01:29:36.223Z,7.83
2022-09-30T01:30:36.221Z,7.80
2022-09-30T01:31:36.311Z,7.80
2022-09-30T01:32:36.187Z,7.82
2022-09-30T01:33:36.186Z,7.77
2022-09-30T01:34:36.188Z,7.72
2022-09-30T01:35:36.171Z,7.70
2022-09-30T01:36:36.151Z,7.73
2022-09-30T01:37:36.133Z,7.73
2022-09-30T01:38:36.128Z,7.69
2022-09-30T01:39:36.115Z,7.76
2022-09-30T01:40:36.129Z,7.70
2022-09-30T01:41:36.092Z,7.73
2022-09-30T01:42:36.088Z,7.73
2022-09-30T01:43:36.072Z,7.73
2022-09-30T01:44:36.073Z,7.76
2022-09-30T01:45:36.051Z,7.79
2022-09-30T01:46:36.109Z,7.76
2022-09-30T01:47:36.034Z,7.80
2022-09-30T01:48:36.008Z,7.77
2022-09-30T01:49:36.005Z,7.85
2022-09-30T01:50:35.992Z,7.67
2022-09-30T01:51:35.984Z,7.67
2022-09-30T01:52:35.989Z,7.63
2022-09-30T01:53:35.954Z,7.80
2022-09-30T01:54:35.942Z,7.66
2022-09-30T01:55:35.934Z,7.67
2022-09-30T01:56:35.918Z,7.72
2022-09-30T01:57:35.927Z,7.69
2022-09-30T01:58:35.897Z,7.69
2022-09-30T01:59:35.894Z,7.61
2022-09-30T02:00:35.950Z,7.69
2022-09-30T02:01:35.865Z,7.69
2022-09-30T02:02:35.859Z,7.61
2022-09-30T02:03:35.850Z,7.57
2022-09-30T02:04:35.829Z,7.61
2022-09-30T02:05:35.847Z,7.56
2022-09-30T02:06:35.806Z,7.54
2022-09-30T02:07:35.806Z,7.56
2022-09-30T02:08:35.782Z,7.56
2022-09-30T02:09:42.925Z,7.53
2022-09-30T02:10:35.759Z,7.54
2022-09-30T02:11:35.751Z,7.60
2022-09-30T02:12:35.740Z,7.58
2022-09-30T02:13:35.739Z,7.67
2022-09-30T02:14:35.721Z,7.60
2022-09-30T02:15:40.257Z,7.57
2022-09-30T02:16:35.764Z,7.54
2022-09-30T02:17:35.701Z,7.58
2022-09-30T02:18:35.681Z,7.60
2022-09-30T02:19:35.659Z,7.56
2022-09-30T02:20:35.657Z,7.58
2022-09-30T02:21:35.641Z,7.51
2022-09-30T02:22:35.644Z,7.54
2022-09-30T02:23:35.647Z,7.56
2022-09-30T02:24:35.602Z,7.51
2022-09-30T02:25:35.601Z,7.50
2022-09-30T02:26:35.582Z,7.48
2022-09-30T02:27:35.572Z,7.51
2022-09-30T02:28:35.563Z,7.45
2022-09-30T02:29:35.562Z,7.50
2022-09-30T02:30:35.537Z,7.47
2022-09-30T02:31:35.602Z,7.47
2022-09-30T02:32:35.537Z,7.45
2022-09-30T02:33:35.508Z,7.45
2022-09-30T02:34:35.497Z,7.36
2022-09-30T02:35:35.498Z,7.38
2022-09-30T02:36:35.465Z,7.38
2022-09-30T02:37:35.462Z,7.42
2022-09-30T02:38:35.458Z,7.39
2022-09-30T02:39:35.444Z,7.38
2022-09-30T02:40:35.424Z,7.33
2022-09-30T02:41:35.424Z,7.32
2022-09-30T02:42:35.407Z,7.40
2022-09-30T02:43:35.403Z,7.36
2022-09-30T02:44:35.378Z,7.31
2022-09-30T02:45:35.378Z,7.33
2022-09-30T02:46:35.470Z,7.31
2022-09-30T02:47:35.349Z,7.43
2022-09-30T02:48:35.345Z,7.36
2022-09-30T02:49:35.331Z,7.33
2022-09-30T02:50:35.322Z,7.29
2022-09-30T02:51:35.319Z,7.33
2022-09-30T02:52:35.281Z,7.31
2022-09-30T02:53:35.282Z,7.33
2022-09-30T02:54:35.271Z,7.36
2022-09-30T02:55:35.280Z,7.38
2022-09-30T02:56:35.254Z,7.33
2022-09-30T02:57:35.232Z,7.29
2022-09-30T02:58:35.235Z,7.42
2022-09-30T02:59:35.212Z,7.28
2022-09-30T03:00:35.231Z,7.31
2022-09-30T03:01:35.259Z,7.32
2022-09-30T03:02:35.185Z,7.38
2022-09-30T03:03:35.173Z,7.36
2022-09-30T03:04:35.175Z,7.33
2022-09-30T03:05:35.136Z,7.33
2022-09-30T03:06:35.147Z,7.32
2022-09-30T03:07:35.125Z,7.35
2022-09-30T03:08:35.132Z,7.29
2022-09-30T03:09:35.301Z,7.17
2022-09-30T03:10:35.080Z,7.23
2022-09-30T03:11:35.081Z,7.21
2022-09-30T03:12:35.077Z,7.24
2022-09-30T03:13:35.065Z,7.18
2022-09-30T03:14:35.038Z,7.28
2022-09-30T03:15:35.042Z,7.14
2022-09-30T03:16:35.096Z,7.18
2022-09-30T03:17:35.003Z,7.15
2022-09-30T03:18:35.003Z,7.25
2022-09-30T03:19:34.998Z,7.29
2022-09-30T03:20:34.988Z,7.23
2022-09-30T03:21:34.968Z,7.18
2022-09-30T03:22:34.948Z,7.15
2022-09-30T03:23:34.948Z,7.25
2022-09-30T03:24:34.930Z,7.20
2022-09-30T03:25:34.913Z,7.24
2022-09-30T03:26:34.899Z,7.18
2022-09-30T03:27:34.896Z,7.18
2022-09-30T03:28:34.905Z,7.20
2022-09-30T03:29:34.875Z,7.23
2022-09-30T03:30:34.868Z,7.18
2022-09-30T03:31:34.925Z,7.20
2022-09-30T03:32:34.835Z,7.13
2022-09-30T03:33:34.822Z,7.17
2022-09-30T03:34:34.817Z,7.07
2022-09-30T03:35:34.804Z,7.11
2022-09-30T03:36:34.809Z,7.14
2022-09-30T03:37:34.780Z,7.13
2022-09-30T03:38:34.766Z,7.06
2022-09-30T03:39:34.760Z,7.05
2022-09-30T03:40:34.759Z,7.02
2022-09-30T03:41:34.736Z,7.00
2022-09-30T03:42:34.736Z,7.11
2022-09-30T03:43:34.711Z,7.05
2022-09-30T03:44:34.704Z,7.05
2022-09-30T03:45:34.684Z,7.07
2022-09-30T03:46:34.743Z,7.10
2022-09-30T03:47:34.670Z,7.06
2022-09-30T03:48:34.654Z,7.06
2022-09-30T03:49:34.648Z,7.11
2022-09-30T03:50:34.635Z,7.10
2022-09-30T03:51:34.620Z,7.02
2022-09-30T03:52:34.701Z,7.02
2022-09-30T03:53:34.596Z,7.07
2022-09-30T03:54:34.596Z,7.06
2022-09-30T03:55:34.580Z,7.06
2022-09-30T03:56:34.564Z,7.02
2022-09-30T03:57:34.572Z,7.11
2022-09-30T03:58:34.544Z,7.05
2022-09-30T03:59:34.543Z,7.02
2022-09-30T04:00:34.549Z,7.05
2022-09-30T04:01:34.584Z,7.00
2022-09-30T04:02:34.495Z,7.02
2022-09-30T04:03:34.498Z,7.02
2022-09-30T04:04:34.481Z,6.97
2022-09-30T04:05:34.461Z,7.00
2022-09-30T04:06:34.467Z,7.02
2022-09-30T04:07:34.442Z,7.02
2022-09-30T04:08:34.440Z,6.85
2022-09-30T04:09:34.456Z,6.82
2022-09-30T04:10:34.401Z,6.82
2022-09-30T04:11:34.470Z,6.79
2022-09-30T04:12:34.387Z,6.78
2022-09-30T04:13:34.374Z,6.88
2022-09-30T04:14:34.363Z,6.82
2022-09-30T04:15:34.358Z,6.87
2022-09-30T04:16:34.431Z,6.92
2022-09-30T04:17:34.337Z,6.85
2022-09-30T04:18:34.312Z,6.84
2022-09-30T04:19:34.308Z,6.85
2022-09-30T04:20:34.294Z,6.88
2022-09-30T04:21:34.301Z,6.92
2022-09-30T04:22:34.266Z,6.92
2022-09-30T04:23:34.252Z,6.88
2022-09-30T04:24:34.260Z,6.85
2022-09-30T04:25:34.232Z,6.84
2022-09-30T04:26:34.224Z,6.78
2022-09-30T04:27:34.222Z,6.81
2022-09-30T04:28:34.201Z,6.82
2022-09-30T04:29:34.184Z,6.81
2022-09-30T04:30:34.169Z,6.78
2022-09-30T04:31:34.198Z,6.82
2022-09-30T04:32:34.159Z,6.84
2022-09-30T04:33:34.137Z,6.82
2022-09-30T04:34:34.130Z,6.82
2022-09-30T04:35:34.115Z,6.79
2022-09-30T04:36:34.105Z,6.92
2022-09-30T04:37:34.092Z,6.82
2022-09-30T04:38:34.096Z,6.82
2022-09-30T04:39:34.090Z,6.88
2022-09-30T04:40:34.080Z,6.87
2022-09-30T04:41:34.056Z,6.78
2022-09-30T04:42:34.038Z,6.77
2022-09-30T04:43:34.033Z,6.84
2022-09-30T04:44:34.015Z,6.79
2022-09-30T04:45:34.042Z,6.85
2022-09-30T04:46:33.992Z,6.74
2022-09-30T04:47:33.979Z,6.69
2022-09-30T04:48:33.982Z,6.70
2022-09-30T04:49:33.976Z,6.70
2022-09-30T04:50:33.955Z,6.67
2022-09-30T04:51:33.942Z,6.70
2022-09-30T04:52:33.933Z,6.69
2022-09-30T04:53:33.916Z,6.66
2022-09-30T04:54:33.907Z,6.63
2022-09-30T04:55:33.903Z,6.66
2022-09-30T04:56:33.955Z,6.67
2022-09-30T04:57:33.866Z,6.64
2022-09-30T04:58:36.991Z,6.70
2022-09-30T04:59:33.894Z,6.67
2022-09-30T05:00:33.969Z,6.79
2022-09-30T05:01:33.841Z,6.64
2022-09-30T05:02:33.812Z,6.72
2022-09-30T05:03:33.800Z,6.66
2022-09-30T05:04:33.792Z,6.62
2022-09-30T05:05:33.780Z,6.60
2022-09-30T05:06:33.782Z,6.66
2022-09-30T05:07:33.756Z,6.67
2022-09-30T05:08:33.752Z,6.69
2022-09-30T05:09:33.913Z,6.64
2022-09-30T05:10:33.756Z,6.54
2022-09-30T05:11:33.706Z,6.49
2022-09-30T05:12:33.717Z,6.44
2022-09-30T05:13:33.684Z,6.42
2022-09-30T05:14:33.685Z,6.41
2022-09-30T05:15:33.665Z,6.42
2022-09-30T05:16:33.777Z,6.41
2022-09-30T05:17:33.640Z,6.39
2022-09-30T05:18:33.628Z,6.48
2022-09-30T05:19:33.627Z,6.48
2022-09-30T05:20:33.612Z,6.49
2022-09-30T05:21:33.594Z,6.52
2022-09-30T05:22:33.609Z,6.44
2022-09-30T05:23:33.578Z,6.52
2022-09-30T05:24:33.577Z,6.49
2022-09-30T05:25:33.546Z,6.46
2022-09-30T05:26:33.552Z,6.46
2022-09-30T05:27:33.541Z,6.46
2022-09-30T05:28:33.537Z,6.49
2022-09-30T05:29:33.507Z,6.48
2022-09-30T05:30:33.498Z,6.44
2022-09-30T05:31:33.571Z,6.39
2022-09-30T05:32:33.481Z,6.42
2022-09-30T05:33:33.465Z,6.39
2022-09-30T05:34:33.452Z,6.36
2022-09-30T05:35:33.438Z,6.28
2022-09-30T05:36:33.423Z,6.31
2022-09-30T05:37:33.418Z,6.31
2022-09-30T05:38:33.407Z,6.28
2022-09-30T05:39:33.400Z,6.33
2022-09-30T05:40:33.382Z,6.44
2022-09-30T05:41:33.366Z,6.31
2022-09-30T05:42:33.354Z,6.38
2022-09-30T05:43:33.343Z,6.42
2022-09-30T05:44:33.380Z,6.42
2022-09-30T05:45:33.328Z,6.39
2022-09-30T05:46:33.421Z,6.41
2022-09-30T05:47:33.299Z,6.38
2022-09-30T05:48:33.291Z,6.42
2022-09-30T05:49:33.276Z,6.54
2022-09-30T05:50:33.277Z,6.52
2022-09-30T05:51:33.260Z,6.59
2022-09-30T05:52:33.247Z,6.56
2022-09-30T05:53:33.237Z,6.57
2022-09-30T05:54:33.228Z,6.62
2022-09-30T05:55:37.064Z,6.62
2022-09-30T05:56:34.205Z,6.59
2022-09-30T05:57:33.190Z,6.62
2022-09-30T05:58:33.183Z,6.64
2022-09-30T05:59:33.158Z,6.64
2022-09-30T06:00:33.168Z,6.70
2022-09-30T06:01:33.148Z,6.69
2022-09-30T06:02:33.293Z,6.69
2022-09-30T06:03:33.125Z,6.67
2022-09-30T06:04:33.112Z,6.74
2022-09-30T06:05:33.111Z,6.77
2022-09-30T06:06:33.098Z,6.77
2022-09-30T06:07:33.080Z,6.75
2022-09-30T06:08:33.069Z,6.79
2022-09-30T06:09:33.122Z,6.82
2022-09-30T06:10:33.042Z,6.81
2022-09-30T06:11:33.032Z,6.87
2022-09-30T06:12:33.023Z,6.85
2022-09-30T06:13:32.998Z,6.87
2022-09-30T06:14:33.006Z,6.88
2022-09-30T06:15:32.979Z,6.92
2022-09-30T06:16:33.115Z,6.96
2022-09-30T06:17:32.957Z,6.95
2022-09-30T06:18:32.952Z,6.87
2022-09-30T06:19:32.937Z,6.97
2022-09-30T06:20:32.939Z,6.96
2022-09-30T06:21:32.916Z,6.96
2022-09-30T06:22:32.915Z,7.06
2022-09-30T06:23:32.889Z,7.06
2022-09-30T06:24:32.877Z,7.06
2022-09-30T06:25:32.864Z,7.06
2022-09-30T06:26:32.860Z,7.06
2022-09-30T06:27:32.847Z,7.07
2022-09-30T06:28:32.859Z,7.13
2022-09-30T06:29:32.825Z,7.18
2022-09-30T06:30:35.199Z,7.28
2022-09-30T06:31:32.843Z,7.15
2022-09-30T06:32:32.810Z,7.24
2022-09-30T06:33:32.790Z,7.31
2022-09-30T06:34:32.784Z,7.25
2022-09-30T06:35:32.756Z,7.28
2022-09-30T06:36:32.753Z,7.25
2022-09-30T06:37:32.725Z,7.29
2022-09-30T06:38:32.739Z,7.24
2022-09-30T06:39:32.703Z,7.31
2022-09-30T06:40:32.713Z,7.39
2022-09-30T06:41:32.690Z,7.38
2022-09-30T06:42:32.689Z,7.43
2022-09-30T06:43:40.246Z,7.47
2022-09-30T06:44:39.789Z,7.60
2022-09-30T06:45:33.636Z,7.66
2022-09-30T06:46:32.783Z,7.69
2022-09-30T06:47:32.633Z,7.76
2022-09-30T06:48:38.231Z,7.76
2022-09-30T06:49:44.007Z,7.93
2022-09-30T06:50:33.594Z,7.82
2022-09-30T06:51:32.578Z,8.05
2022-09-30T06:52:32.562Z,8.01
2022-09-30T06:53:32.548Z,8.06
2022-09-30T06:54:32.535Z,8.03
2022-09-30T06:55:32.622Z,7.97
2022-09-30T06:56:32.520Z,8.13
2022-09-30T06:57:32.510Z,8.15
2022-09-30T06:58:32.490Z,8.23
2022-09-30T06:59:32.477Z,8.27
2022-09-30T07:00:32.586Z,8.30
2022-09-30T07:01:32.460Z,8.30
2022-09-30T07:02:32.575Z,8.36
2022-09-30T07:03:32.430Z,8.44
2022-09-30T07:04:32.466Z,8.51
2022-09-30T07:05:32.431Z,8.56
2022-09-30T07:06:32.425Z,8.61
2022-09-30T07:07:32.385Z,8.52
2022-09-30T07:08:32.386Z,8.66
2022-09-30T07:09:32.407Z,8.61
2022-09-30T07:10:32.355Z,8.67
2022-09-30T07:11:32.343Z,8.71
2022-09-30T07:12:32.334Z,8.71
2022-09-30T07:13:32.323Z,8.76
2022-09-30T07:14:32.320Z,8.87
2022-09-30T07:15:32.300Z,8.89
2022-09-30T07:16:32.361Z,8.84
2022-09-30T07:17:32.292Z,8.91
2022-09-30T07:18:32.263Z,8.95
2022-09-30T07:19:32.267Z,9.08
2022-09-30T07:20:32.266Z,9.04
2022-09-30T07:21:32.240Z,9.13
2022-09-30T07:22:32.238Z,9.13
2022-09-30T07:23:32.219Z,9.21
2022-09-30T07:24:32.198Z,9.22
2022-09-30T07:25:32.188Z,9.34
2022-09-30T07:26:32.177Z,9.55
2022-09-30T07:27:32.183Z,9.68
2022-09-30T07:28:32.151Z,9.79
2022-09-30T07:29:44.598Z,9.82
2022-09-30T07:30:33.128Z,9.83
2022-09-30T07:31:34.014Z,9.87
2022-09-30T07:32:32.190Z,9.94
2022-09-30T07:33:32.095Z,9.98
2022-09-30T07:34:32.084Z,10.10
2022-09-30T07:35:32.073Z,10.09
2022-09-30T07:36:34.245Z,10.23
2022-09-30T07:37:32.087Z,10.25
2022-09-30T07:38:32.044Z,10.34
2022-09-30T07:39:32.036Z,10.38
2022-09-30T07:40:32.018Z,10.57
2022-09-30T07:41:32.005Z,10.68
2022-09-30T07:42:32.005Z,10.92
2022-09-30T07:43:31.994Z,11.15
2022-09-30T07:44:31.977Z,11.32
2022-09-30T07:45:32.019Z,11.55
2022-09-30T07:46:31.951Z,11.70
2022-09-30T07:47:31.942Z,11.87
2022-09-30T07:48:31.930Z,11.95
2022-09-30T07:49:31.915Z,11.81
2022-09-30T07:50:31.915Z,11.84
2022-09-30T07:51:31.894Z,11.80
2022-09-30T07:52:31.905Z,11.78
2022-09-30T07:53:31.867Z,11.77
2022-09-30T07:54:31.861Z,11.73
2022-09-30T07:55:31.859Z,11.77
2022-09-30T07:56:51.248Z,11.80
2022-09-30T07:57:32.825Z,12.07
2022-09-30T07:58:31.836Z,12.25
2022-09-30T07:59:31.833Z,12.25
2022-09-30T08:00:42.200Z,12.35
2022-09-30T08:01:32.837Z,12.42
2022-09-30T08:02:31.821Z,12.42
2022-09-30T08:03:31.761Z,12.65
2022-09-30T08:04:31.763Z,12.67
2022-09-30T08:05:31.734Z,12.68
2022-09-30T08:06:31.735Z,12.80
2022-09-30T08:07:31.715Z,12.80
2022-09-30T08:08:31.735Z,12.83
2022-09-30T08:09:31.854Z,12.91
2022-09-30T08:10:31.688Z,12.87
2022-09-30T08:11:31.663Z,12.80
2022-09-30T08:12:31.660Z,12.79
2022-09-30T08:13:31.650Z,12.83
2022-09-30T08:14:31.633Z,12.85
2022-09-30T08:15:31.632Z,12.90
2022-09-30T08:16:31.662Z,12.87
2022-09-30T08:17:31.597Z,12.80
2022-09-30T08:18:31.601Z,12.87
2022-09-30T08:19:31.577Z,12.94
2022-09-30T08:20:31.574Z,12.94
2022-09-30T08:21:31.553Z,13.00
2022-09-30T08:22:31.551Z,13.04
2022-09-30T08:23:31.536Z,13.12
2022-09-30T08:24:31.553Z,13.18
2022-09-30T08:25:31.546Z,13.15
2022-09-30T08:26:31.500Z,13.28
2022-09-30T08:27:31.537Z,13.19
2022-09-30T08:28:31.477Z,13.28
2022-09-30T08:30:32.474Z,13.30
2022-09-30T08:31:31.511Z,13.41
2022-09-30T08:32:31.433Z,13.38
2022-09-30T08:33:31.419Z,13.35
2022-09-30T08:34:31.430Z,13.39
2022-09-30T08:35:31.411Z,13.46
2022-09-30T08:36:31.389Z,13.39
2022-09-30T08:37:31.378Z,13.42
2022-09-30T08:38:31.362Z,13.39
2022-09-30T08:39:31.374Z,13.50
2022-09-30T08:40:31.373Z,13.56
2022-09-30T08:41:31.368Z,13.68
2022-09-30T08:42:40.551Z,13.59
2022-09-30T08:43:32.306Z,13.67
2022-09-30T08:44:31.297Z,13.67
2022-09-30T08:45:31.335Z,13.78
2022-09-30T08:46:31.302Z,13.83
2022-09-30T08:47:31.270Z,13.95
2022-09-30T08:48:31.259Z,14.08
2022-09-30T08:49:31.237Z,14.26
2022-09-30T08:50:31.232Z,14.14
2022-09-30T08:51:31.221Z,14.26
2022-09-30T08:52:47.781Z,14.28
2022-09-30T08:53:32.196Z,14.26
2022-09-30T08:54:31.180Z,14.20
2022-09-30T08:55:31.186Z,14.32
2022-09-30T08:56:31.179Z,14.30
2022-09-30T08:57:31.160Z,14.37
2022-09-30T08:58:31.145Z,14.44
2022-09-30T08:59:31.132Z,14.48
2022-09-30T09:00:31.110Z,14.55
2022-09-30T09:01:31.173Z,14.60
2022-09-30T09:02:31.173Z,14.60
2022-09-30T09:03:31.079Z,14.68
2022-09-30T09:04:31.131Z,14.78
2022-09-30T09:05:31.062Z,14.70
2022-09-30T09:06:31.084Z,14.79
2022-09-30T09:07:31.037Z,14.84
2022-09-30T09:08:31.055Z,14.69
2022-09-30T09:09:31.013Z,14.82
2022-09-30T09:10:31.004Z,14.84
2022-09-30T09:11:30.991Z,14.94
2022-09-30T09:12:30.999Z,14.96
2022-09-30T09:13:30.968Z,14.99
2022-09-30T09:14:30.972Z,15.02
2022-09-30T09:15:30.968Z,14.99
2022-09-30T09:16:31.031Z,14.99
2022-09-30T09:17:30.927Z,14.96
2022-09-30T09:18:30.922Z,15.15
2022-09-30T09:19:30.907Z,15.07
2022-09-30T09:20:30.897Z,15.19
2022-09-30T09:21:30.878Z,15.21
2022-09-30T09:22:30.868Z,15.31
2022-09-30T09:23:30.900Z,15.40
2022-09-30T09:24:30.840Z,15.43
2022-09-30T09:25:30.833Z,15.52
2022-09-30T09:26:30.820Z,15.44
2022-09-30T09:28:30.884Z,15.36
2022-09-30T09:29:30.812Z,15.37
2022-09-30T09:30:30.775Z,15.49
2022-09-30T09:31:30.832Z,15.44
2022-09-30T09:32:30.755Z,15.58
2022-09-30T09:33:30.748Z,15.55
2022-09-30T09:34:30.757Z,15.62
2022-09-30T09:35:30.721Z,15.61
2022-09-30T09:36:30.710Z,15.82
2022-09-30T09:37:30.696Z,15.92
2022-09-30T09:38:30.683Z,15.91
2022-09-30T09:39:30.688Z,15.94
2022-09-30T09:40:30.680Z,15.88
2022-09-30T09:41:30.665Z,15.86
2022-09-30T09:42:30.741Z,15.97
2022-09-30T09:43:30.631Z,15.92
2022-09-30T09:44:30.690Z,15.94
2022-09-30T09:45:30.655Z,15.91
2022-09-30T09:46:30.591Z,15.95
2022-09-30T09:47:30.723Z,16.02
2022-09-30T09:48:30.572Z,16.09
2022-09-30T09:49:30.570Z,16.13
2022-09-30T09:50:30.555Z,16.21
2022-09-30T09:51:30.539Z,16.17
2022-09-30T09:52:30.531Z,16.26
2022-09-30T09:53:30.538Z,16.35
2022-09-30T09:54:30.504Z,16.51
2022-09-30T09:55:30.509Z,16.49
2022-09-30T09:56:32.476Z,16.38
2022-09-30T09:57:30.472Z,16.41
2022-09-30T09:58:30.457Z,16.46
2022-09-30T09:59:30.449Z,16.46
2022-09-30T10:00:30.477Z,16.50
2022-09-30T10:01:30.498Z,16.53
2022-09-30T10:02:30.469Z,16.53
2022-09-30T10:03:30.405Z,16.58
2022-09-30T10:04:30.413Z,16.56
2022-09-30T10:05:30.418Z,16.57
2022-09-30T10:06:30.404Z,16.57
2022-09-30T10:07:31.131Z,16.72
2022-09-30T10:08:30.447Z,16.76
2022-09-30T10:09:30.335Z,16.81
2022-09-30T10:10:30.323Z,16.86
2022-09-30T10:11:30.321Z,16.89
2022-09-30T10:12:30.302Z,16.93
2022-09-30T10:13:30.299Z,17.02
2022-09-30T10:14:30.295Z,17.02
2022-09-30T10:15:30.266Z,17.05
2022-09-30T10:16:30.302Z,17.11
2022-09-30T10:17:30.242Z,17.09
2022-09-30T10:18:30.230Z,17.19
2022-09-30T10:19:30.226Z,17.06
2022-09-30T10:20:30.203Z,16.99
2022-09-30T10:21:30.196Z,17.06
2022-09-30T10:22:30.209Z,17.04
2022-09-30T10:23:30.178Z,17.06
2022-09-30T10:24:30.164Z,17.23
2022-09-30T10:25:30.165Z,17.24
2022-09-30T10:26:30.146Z,17.34
2022-09-30T10:27:30.139Z,17.46
2022-09-30T10:28:30.232Z,17.41
2022-09-30T10:29:30.979Z,17.26
2022-09-30T10:30:30.111Z,17.41
2022-09-30T10:31:30.237Z,17.56
2022-09-30T10:32:30.095Z,17.52
2022-09-30T10:33:30.064Z,17.56
2022-09-30T10:34:30.956Z,17.59
2022-09-30T10:35:30.037Z,17.34
2022-09-30T10:36:30.040Z,17.31
2022-09-30T10:37:30.012Z,17.34
2022-09-30T10:38:30.131Z,17.23
2022-09-30T10:39:30.029Z,17.34
2022-09-30T10:40:29.983Z,17.36
2022-09-30T10:41:30.030Z,17.48
2022-09-30T10:42:29.956Z,17.59
2022-09-30T10:43:29.997Z,17.59
2022-09-30T10:44:29.930Z,17.59
2022-09-30T10:45:29.971Z,17.49
2022-09-30T10:46:29.962Z,17.45
2022-09-30T10:47:35.493Z,17.46
2022-09-30T10:48:29.945Z,17.49
2022-09-30T10:49:29.881Z,17.63
2022-09-30T10:50:29.862Z,17.74
2022-09-30T10:51:30.182Z,17.56
2022-09-30T10:52:29.875Z,17.64
2022-09-30T10:53:29.862Z,17.59
2022-09-30T10:54:29.818Z,17.72
2022-09-30T10:55:29.841Z,17.80
2022-09-30T10:56:29.795Z,17.80
2022-09-30T10:57:29.786Z,17.86
2022-09-30T10:58:29.810Z,18.04
2022-09-30T10:59:29.778Z,18.10
2022-09-30T11:00:29.751Z,18.11
2022-09-30T11:01:30.365Z,18.11
2022-09-30T11:02:29.727Z,17.97
2022-09-30T11:03:29.812Z,17.95
2022-09-30T11:04:29.855Z,18.07
2022-09-30T11:05:29.703Z,17.94
2022-09-30T11:06:29.951Z,17.83
2022-09-30T11:07:29.673Z,17.76
2022-09-30T11:08:29.682Z,17.74
2022-09-30T11:09:29.652Z,17.83
2022-09-30T11:10:29.684Z,17.98
2022-09-30T11:11:29.628Z,18.18
2022-09-30T11:12:29.611Z,18.33
2022-09-30T11:13:29.606Z,18.44
2022-09-30T11:14:29.591Z,18.33
2022-09-30T11:15:29.584Z,18.23
2022-09-30T11:16:30.083Z,18.13
2022-09-30T11:17:29.557Z,18.15
2022-09-30T11:18:29.544Z,18.10
2022-09-30T11:19:29.534Z,17.98
2022-09-30T11:20:29.544Z,17.87
2022-09-30T11:21:29.529Z,18.04
2022-09-30T11:22:29.498Z,18.01
2022-09-30T11:23:29.494Z,18.00
2022-09-30T11:24:29.476Z,18.04
2022-09-30T11:25:29.486Z,18.04
2022-09-30T11:26:29.928Z,18.11
2022-09-30T11:27:29.445Z,18.10
2022-09-30T11:28:29.455Z,18.08
2022-09-30T11:29:29.423Z,18.22
2022-09-30T11:30:29.409Z,18.22
2022-09-30T11:31:29.464Z,18.23
2022-09-30T11:32:29.405Z,18.35
2022-09-30T11:33:29.389Z,18.43
2022-09-30T11:34:29.361Z,18.43
2022-09-30T11:35:29.356Z,18.53
2022-09-30T11:36:29.754Z,18.53
2022-09-30T11:37:29.369Z,18.41
2022-09-30T11:38:29.316Z,18.47
2022-09-30T11:39:29.316Z,18.47
2022-09-30T11:40:29.294Z,18.35
2022-09-30T11:41:29.285Z,18.25
2022-09-30T11:42:29.305Z,18.08
2022-09-30T11:43:29.270Z,17.85
2022-09-30T11:44:29.247Z,17.92
2022-09-30T11:45:29.272Z,17.70
2022-09-30T11:46:29.822Z,17.72
2022-09-30T11:47:29.244Z,17.74
2022-09-30T11:48:32.643Z,17.60
2022-09-30T11:49:29.196Z,17.71
2022-09-30T11:50:29.181Z,17.72
2022-09-30T11:51:29.175Z,17.79
2022-09-30T11:52:29.187Z,17.86
2022-09-30T11:53:29.172Z,17.92
2022-09-30T11:54:29.138Z,17.95
2022-09-30T11:55:29.128Z,17.95
2022-09-30T11:56:29.533Z,18.03
2022-09-30T11:57:29.103Z,18.00
2022-09-30T11:58:40.989Z,17.85
2022-09-30T11:59:30.102Z,17.80
2022-09-30T12:00:29.077Z,17.79
2022-09-30T12:01:29.088Z,17.83
2022-09-30T12:02:29.059Z,17.95
2022-09-30T12:03:29.092Z,17.95
2022-09-30T12:04:29.045Z,17.98
2022-09-30T12:05:29.014Z,18.01
2022-09-30T12:06:29.330Z,17.97
2022-09-30T12:07:28.997Z,18.01
2022-09-30T12:08:29.015Z,18.13
2022-09-30T12:09:28.985Z,18.29
2022-09-30T12:10:28.955Z,18.23
2022-09-30T12:11:28.947Z,18.05
2022-09-30T12:12:28.933Z,17.92
2022-09-30T12:13:28.967Z,17.82
2022-09-30T12:14:28.912Z,17.86
2022-09-30T12:15:28.900Z,17.80
2022-09-30T12:16:29.249Z,17.68
2022-09-30T12:17:28.909Z,17.68
2022-09-30T12:18:28.874Z,17.67
2022-09-30T12:19:28.856Z,17.82
2022-09-30T12:20:28.840Z,17.89
2022-09-30T12:21:28.837Z,18.01
2022-09-30T12:22:28.854Z,17.92
2022-09-30T12:23:28.830Z,17.98
2022-09-30T12:24:28.816Z,17.95
2022-09-30T12:25:28.786Z,17.94
2022-09-30T12:26:29.001Z,17.92
2022-09-30T12:27:28.766Z,17.78
2022-09-30T12:28:28.849Z,17.85
2022-09-30T12:29:28.742Z,17.83
2022-09-30T12:30:28.726Z,17.83
2022-09-30T12:31:28.751Z,17.82
2022-09-30T12:32:28.709Z,17.83
2022-09-30T12:33:28.699Z,17.82
2022-09-30T12:34:28.692Z,17.92
2022-09-30T12:35:28.714Z,17.86
2022-09-30T12:36:28.936Z,17.89
2022-09-30T12:37:28.650Z,17.97
2022-09-30T12:38:28.635Z,18.03
2022-09-30T12:39:28.648Z,17.95
2022-09-30T12:40:28.632Z,17.92
2022-09-30T12:41:28.613Z,17.79
2022-09-30T12:42:28.589Z,17.60
2022-09-30T12:43:28.589Z,17.52
2022-09-30T12:44:28.572Z,17.36
2022-09-30T12:45:28.594Z,17.49
2022-09-30T12:46:28.961Z,17.64
2022-09-30T12:47:28.536Z,17.60
2022-09-30T12:48:28.523Z,17.70
2022-09-30T12:49:28.531Z,17.54
2022-09-30T12:50:28.502Z,17.60
2022-09-30T12:51:28.501Z,17.59
2022-09-30T12:52:28.478Z,17.52
2022-09-30T12:53:28.466Z,17.56
2022-09-30T12:54:28.496Z,17.54
2022-09-30T12:55:28.446Z,17.60
2022-09-30T12:56:28.978Z,17.57
2022-09-30T12:57:28.438Z,17.46
2022-09-30T12:58:30.993Z,17.51
2022-09-30T12:59:28.401Z,17.49
2022-09-30T13:00:28.392Z,17.60
2022-09-30T13:01:28.456Z,17.59
2022-09-30T13:02:28.456Z,17.49
2022-09-30T13:03:28.353Z,17.52
2022-09-30T13:04:28.364Z,17.65
2022-09-30T13:05:28.340Z,17.59
2022-09-30T13:06:28.799Z,17.63
2022-09-30T13:07:28.307Z,17.76
2022-09-30T13:08:28.297Z,17.79
2022-09-30T13:09:28.283Z,17.86